Time;durP1;ratioP1;P1;durP2;ratioP2;P2;SDS_P1;SDS_P2;PMS_P1;PMS_P2;Temp;Humidity;BMP_temperature;BMP_pressure;BME280_temperature;BME280_humidity;BME280_pressure;Samples;Min_cycle;Max_cycle;Signal;HPM_P1;HPM_P2
2021/10/04 00:00:36;;;;;;;9.13;4.80;;;;;;;-143.90;100.00;58478.06;5067373;28;20218;-73
2021/10/04 00:03:01;;;;;;;8.17;4.90;;;;;;;-143.90;100.00;58478.06;5068141;28;20272;-73
2021/10/04 00:05:27;;;;;;;10.40;4.80;;;;;;;-143.90;100.00;58478.06;5067668;28;20264;-73
2021/10/04 00:07:55;;;;;;;8.83;4.83;;;;;;;-143.90;100.00;58478.06;5067428;28;20263;-73
2021/10/04 00:10:21;;;;;;;7.97;4.73;;;;;;;-143.90;100.00;58478.06;5067353;28;20172;-77
2021/10/04 00:12:47;;;;;;;9.63;5.17;;;;;;;-143.90;100.00;58478.06;5067386;28;20454;-73
2021/10/04 00:15:16;;;;;;;13.70;6.00;;;;;;;-143.90;100.00;58478.06;5067405;28;20437;-72
2021/10/04 00:17:43;;;;;;;9.07;5.57;;;;;;;-143.90;100.00;58478.06;5067142;28;20425;-70
2021/10/04 00:20:12;;;;;;;10.57;6.10;;;;;;;-143.90;100.00;58478.06;5067722;28;20845;-72
2021/10/04 00:22:38;;;;;;;10.77;5.97;;;;;;;-143.90;100.00;58478.06;5067645;28;20406;-72
2021/10/04 00:25:06;;;;;;;8.40;5.27;;;;;;;-143.90;100.00;58478.06;5067335;28;20447;-72
2021/10/04 00:27:32;;;;;;;14.03;5.77;;;;;;;-143.90;100.00;58478.06;5067736;28;20501;-72
2021/10/04 00:29:58;;;;;;;12.30;6.40;;;;;;;-143.90;100.00;58478.06;5066275;28;20995;-71
2021/10/04 00:32:24;;;;;;;12.57;6.20;;;;;;;-143.90;100.00;58478.06;5067300;28;20849;-72
2021/10/04 00:34:49;;;;;;;11.47;6.97;;;;;;;-143.90;100.00;58478.06;5066938;28;20431;-74
2021/10/04 00:37:15;;;;;;;12.70;7.33;;;;;;;-143.90;100.00;58478.06;5067127;28;20480;-74
2021/10/04 00:39:40;;;;;;;12.50;7.10;;;;;;;-143.90;100.00;58478.06;5067623;28;20775;-71
2021/10/04 00:42:06;;;;;;;13.40;7.40;;;;;;;-143.90;100.00;58478.06;5063581;28;20272;-72
2021/10/04 00:44:31;;;;;;;23.33;9.00;;;;;;;-143.90;100.00;58478.06;5065783;28;20176;-71
2021/10/04 00:46:57;;;;;;;19.27;14.63;;;;;;;-143.90;100.00;58478.06;5069826;28;20172;-73
2021/10/04 00:49:23;;;;;;;26.80;18.30;;;;;;;-143.90;100.00;58478.06;5070447;28;20176;-74
2021/10/04 00:51:49;;;;;;;25.87;17.17;;;;;;;-143.90;100.00;58478.06;5071175;28;20171;-72
2021/10/04 00:54:15;;;;;;;33.43;23.73;;;;;;;-143.90;100.00;58478.06;5071657;28;20411;-77
2021/10/04 00:56:40;;;;;;;47.50;31.00;;;;;;;-143.90;100.00;58478.06;5070752;28;20203;-73
2021/10/04 00:59:06;;;;;;;52.40;38.07;;;;;;;-143.90;100.00;58478.06;5071236;28;20259;-73
2021/10/04 01:01:32;;;;;;;49.70;34.80;;;;;;;-143.90;100.00;58478.06;5071563;28;20176;-73
2021/10/04 01:03:59;;;;;;;49.50;34.90;;;;;;;-143.90;100.00;58478.06;5071243;28;20549;-72
2021/10/04 01:06:28;;;;;;;38.13;26.50;;;;;;;-143.90;100.00;58478.06;5070438;28;20631;-73
2021/10/04 01:08:54;;;;;;;34.03;24.77;;;;;;;-143.90;100.00;58478.06;5071731;28;20429;-76
2021/10/04 01:11:19;;;;;;;27.90;20.57;;;;;;;-143.90;100.00;58478.06;5070875;28;20900;-72
2021/10/04 01:13:47;;;;;;;34.43;24.27;;;;;;;-143.90;100.00;58478.06;5070979;28;20283;-72
2021/10/04 01:16:13;;;;;;;28.63;18.40;;;;;;;-143.90;100.00;58478.06;5070692;28;20176;-72
2021/10/04 01:18:39;;;;;;;30.20;19.97;;;;;;;-143.90;100.00;58478.06;5071457;28;20473;-70
2021/10/04 01:21:05;;;;;;;25.07;17.67;;;;;;;-143.90;100.00;58478.06;5071182;28;20410;-73
2021/10/04 01:23:31;;;;;;;22.50;16.37;;;;;;;-143.90;100.00;58478.06;5070773;28;20195;-73
2021/10/04 01:25:58;;;;;;;24.80;15.30;;;;;;;-143.90;100.00;58478.06;5070760;28;20176;-72
2021/10/04 01:28:25;;;;;;;19.33;13.77;;;;;;;-143.90;100.00;58478.06;5053227;28;20410;-72
2021/10/04 01:30:51;;;;;;;20.57;11.30;;;;;;;-143.90;100.00;58478.06;5070417;28;20418;-73
2021/10/04 01:33:16;;;;;;;18.30;10.00;;;;;;;-143.90;100.00;58478.06;5070616;28;20536;-70
2021/10/04 01:35:42;;;;;;;14.90;8.03;;;;;;;-143.90;100.00;58478.06;5069837;28;20438;-71
2021/10/04 01:38:09;;;;;;;11.13;7.20;;;;;;;-143.90;100.00;58478.06;5070976;28;20974;-71
2021/10/04 01:40:35;;;;;;;16.50;6.63;;;;;;;-143.90;100.00;58478.06;5068820;28;20204;-71
2021/10/04 01:43:01;;;;;;;9.60;6.50;;;;;;;-143.90;100.00;58478.06;5070410;28;20568;-71
2021/10/04 01:45:28;;;;;;;9.50;6.53;;;;;;;-143.90;100.00;58478.06;5070092;28;20422;-71
2021/10/04 01:47:59;;;;;;;11.57;8.03;;;;;;;-143.90;100.00;58478.06;5076112;28;20434;-73
2021/10/04 01:50:29;;;;;;;11.93;8.40;;;;;;;-143.90;100.00;58478.06;5052309;28;20494;-71
2021/10/04 01:52:55;;;;;;;12.90;8.20;;;;;;;-143.90;100.00;58478.06;5070759;28;20457;-73
2021/10/04 01:55:21;;;;;;;16.63;9.30;;;;;;;-143.90;100.00;58478.06;5069993;28;20433;-72
2021/10/04 01:57:46;;;;;;;12.37;8.37;;;;;;;-143.90;100.00;58478.06;5069930;28;20187;-73
2021/10/04 02:00:16;;;;;;;14.10;8.60;;;;;;;-143.90;100.00;58478.06;5070176;28;20419;-71
2021/10/04 02:02:44;;;;;;;12.87;9.33;;;;;;;-143.90;100.00;58478.06;5070528;28;20175;-72
2021/10/04 02:05:10;;;;;;;16.63;8.63;;;;;;;-143.90;100.00;58478.06;5070324;28;20484;-72
2021/10/04 02:07:37;;;;;;;11.73;7.93;;;;;;;-143.90;100.00;58478.06;5070149;28;21072;-72
2021/10/04 02:10:14;;;;;;;12.07;8.07;;;;;;;-143.90;100.00;58478.06;5069444;28;20434;-72
2021/10/04 02:12:41;;;;;;;12.23;7.93;;;;;;;-143.90;100.00;58478.06;5069897;28;20476;-73
2021/10/04 02:15:07;;;;;;;16.40;8.60;;;;;;;-143.90;100.00;58478.06;5069932;28;20434;-76
2021/10/04 02:17:34;;;;;;;16.30;8.77;;;;;;;-143.90;100.00;58478.06;5069844;28;20462;-72
2021/10/04 02:20:04;;;;;;;14.70;7.90;;;;;;;-143.90;100.00;58478.06;5069460;28;20403;-77
2021/10/04 02:22:29;;;;;;;10.67;6.60;;;;;;;-143.90;100.00;58478.06;5069949;28;20427;-77
2021/10/04 02:24:55;;;;;;;12.27;8.23;;;;;;;-143.90;100.00;58478.06;5069741;28;20960;-73
2021/10/04 02:27:20;;;;;;;12.50;6.50;;;;;;;-143.90;100.00;58478.06;5069616;28;20179;-79
2021/10/04 02:29:46;;;;;;;11.00;6.13;;;;;;;-143.90;100.00;58478.06;5068597;28;20180;-78
2021/10/04 02:32:11;;;;;;;11.43;7.03;;;;;;;-143.90;100.00;58478.06;5069647;28;20196;-77
2021/10/04 02:34:37;;;;;;;12.13;6.97;;;;;;;-143.90;100.00;58478.06;5069752;28;20191;-79
2021/10/04 02:37:02;;;;;;;12.53;6.53;;;;;;;-143.90;100.00;58478.06;5069535;28;20643;-74
2021/10/04 02:39:28;;;;;;;10.37;6.90;;;;;;;-143.90;100.00;58478.06;5069882;28;20227;-74
2021/10/04 02:41:55;;;;;;;10.57;5.93;;;;;;;-143.90;100.00;58478.06;5067004;28;20177;-72
2021/10/04 02:44:20;;;;;;;12.83;8.23;;;;;;;-143.90;100.00;58478.06;5051597;28;20199;-73
2021/10/04 02:46:46;;;;;;;10.67;6.70;;;;;;;-143.90;100.00;58478.06;5068630;28;20465;-75
2021/10/04 02:49:12;;;;;;;18.27;8.03;;;;;;;-143.90;100.00;58478.06;5069382;28;20716;-73
2021/10/04 02:51:37;;;;;;;11.47;6.80;;;;;;;-143.90;100.00;58478.06;5069535;28;20638;-74
2021/10/04 02:54:03;;;;;;;11.40;6.73;;;;;;;-143.90;100.00;58478.06;5069516;28;20447;-74
2021/10/04 02:56:28;;;;;;;12.93;8.07;;;;;;;-143.90;100.00;58478.06;5069085;28;20537;-74
2021/10/04 02:58:54;;;;;;;12.90;7.47;;;;;;;-143.90;100.00;58478.06;5068807;28;20184;-75
2021/10/04 03:01:20;;;;;;;12.37;9.17;;;;;;;-143.90;100.00;58478.06;5069132;28;20183;-73
2021/10/04 03:03:45;;;;;;;17.00;11.23;;;;;;;-143.90;100.00;58478.06;5068905;28;20177;-76
2021/10/04 03:06:11;;;;;;;20.67;9.57;;;;;;;-143.90;100.00;58478.06;5068406;28;20625;-75
2021/10/04 03:08:36;;;;;;;13.37;8.90;;;;;;;-143.90;100.00;58478.06;5068710;28;20168;-74
2021/10/04 03:11:02;;;;;;;18.97;8.83;;;;;;;-143.90;100.00;58478.06;5068024;28;20200;-76
2021/10/04 03:13:28;;;;;;;14.30;7.97;;;;;;;-143.90;100.00;58478.06;5068758;28;20196;-76
2021/10/04 03:15:53;;;;;;;14.00;7.97;;;;;;;-143.90;100.00;58478.06;5068093;28;20430;-76
2021/10/04 03:18:19;;;;;;;9.13;6.30;;;;;;;-143.90;100.00;58478.06;5068482;28;20994;-75
2021/10/04 03:20:45;;;;;;;9.80;6.57;;;;;;;-143.90;100.00;58478.06;5068542;28;20203;-76
2021/10/04 03:23:10;;;;;;;12.60;6.67;;;;;;;-143.90;100.00;58478.06;5050506;28;20184;-73
2021/10/04 03:25:36;;;;;;;10.43;6.00;;;;;;;-143.90;100.00;58478.06;5068859;28;20693;-73
2021/10/04 03:28:03;;;;;;;9.93;6.10;;;;;;;-143.90;100.00;58478.06;5068407;28;20283;-74
2021/10/04 03:30:28;;;;;;;12.00;7.40;;;;;;;-143.90;100.00;58478.06;5068309;28;20168;-75
2021/10/04 03:32:54;;;;;;;19.30;7.77;;;;;;;-143.90;100.00;58478.06;5070667;28;20458;-78
2021/10/04 03:35:20;;;;;;;12.30;6.60;;;;;;;-143.90;100.00;58478.06;5070665;28;20684;-76
2021/10/04 03:37:46;;;;;;;10.20;6.17;;;;;;;-143.90;100.00;58478.06;5070890;28;20293;-75
2021/10/04 03:40:12;;;;;;;10.90;7.57;;;;;;;-143.90;100.00;58478.06;5070535;28;20457;-75
2021/10/04 03:42:39;;;;;;;16.43;6.87;;;;;;;-143.90;100.00;58478.06;5070714;28;20498;-75
2021/10/04 03:45:05;;;;;;;14.30;5.63;;;;;;;-143.90;100.00;58478.06;5070139;28;20465;-73
2021/10/04 03:47:31;;;;;;;9.10;6.27;;;;;;;-143.90;100.00;58478.06;5069784;28;20944;-72
2021/10/04 03:49:56;;;;;;;12.83;7.17;;;;;;;-143.90;100.00;58478.06;5070150;28;20415;-72
2021/10/04 03:52:22;;;;;;;14.83;6.90;;;;;;;-143.90;100.00;58478.06;5069758;28;20744;-80
2021/10/04 03:54:47;;;;;;;10.83;6.60;;;;;;;-143.90;100.00;58478.06;5070951;28;20584;-78
2021/10/04 03:57:13;;;;;;;12.33;6.03;;;;;;;-143.90;100.00;58478.06;5070658;28;20259;-77
2021/10/04 03:59:38;;;;;;;14.30;7.07;;;;;;;-143.90;100.00;58478.06;5086230;28;20212;-76
2021/10/04 04:02:04;;;;;;;11.50;6.20;;;;;;;-143.90;100.00;58478.06;5068890;28;20210;-70
2021/10/04 04:04:31;;;;;;;12.23;6.23;;;;;;;-143.90;100.00;58478.06;5069387;28;20164;-71
2021/10/04 04:06:57;;;;;;;12.03;8.50;;;;;;;-143.90;100.00;58478.06;5069639;28;20175;-72
2021/10/04 04:09:22;;;;;;;12.53;7.80;;;;;;;-143.90;100.00;58478.06;5067365;28;20422;-72
2021/10/04 04:11:48;;;;;;;11.90;7.17;;;;;;;-143.90;100.00;58478.06;5069572;28;20183;-74
2021/10/04 04:14:13;;;;;;;17.87;7.10;;;;;;;-143.90;100.00;58478.06;5069875;28;20247;-81
2021/10/04 04:16:39;;;;;;;17.03;7.50;;;;;;;-143.90;100.00;58478.06;5068695;28;20165;-71
2021/10/04 04:19:05;;;;;;;16.23;7.00;;;;;;;-143.90;100.00;58478.06;5069747;28;20164;-76
2021/10/04 04:21:30;;;;;;;12.00;7.20;;;;;;;-143.90;100.00;58478.06;5069065;28;20788;-76
2021/10/04 04:23:56;;;;;;;12.17;7.10;;;;;;;-143.90;100.00;58478.06;5068931;28;20192;-72
2021/10/04 04:26:21;;;;;;;15.13;7.27;;;;;;;-143.90;100.00;58478.06;5069519;28;20176;-75
2021/10/04 04:28:47;;;;;;;20.03;7.70;;;;;;;-143.90;100.00;58478.06;5069050;28;20306;-72
2021/10/04 04:31:12;;;;;;;16.20;8.17;;;;;;;-143.90;100.00;58478.06;5069726;28;20184;-74
2021/10/04 04:33:38;;;;;;;14.40;7.87;;;;;;;-143.90;100.00;58478.06;5069212;28;20200;-74
2021/10/04 04:36:05;;;;;;;10.90;7.13;;;;;;;-143.90;100.00;58478.06;5077450;28;20177;-78
2021/10/04 04:38:31;;;;;;;23.00;8.03;;;;;;;-143.90;100.00;58478.06;5067587;28;20228;-73
2021/10/04 04:40:56;;;;;;;19.00;8.73;;;;;;;-143.90;100.00;58478.06;5069151;28;20813;-73
2021/10/04 04:43:22;;;;;;;13.53;7.67;;;;;;;-143.90;100.00;58478.06;5069585;28;20561;-74
2021/10/04 04:45:47;;;;;;;14.80;8.60;;;;;;;-143.90;100.00;58478.06;5069802;28;20176;-74
2021/10/04 04:48:14;;;;;;;20.73;11.50;;;;;;;-143.90;100.00;58478.06;5070135;28;20593;-77
2021/10/04 04:50:40;;;;;;;23.60;15.93;;;;;;;-143.90;100.00;58478.06;5069639;28;20402;-79
2021/10/04 04:53:05;;;;;;;30.70;17.47;;;;;;;-143.90;100.00;58478.06;5069943;28;20485;-73
2021/10/04 04:55:32;;;;;;;39.40;22.63;;;;;;;-143.90;100.00;58478.06;5069789;28;20622;-74
2021/10/04 04:57:58;;;;;;;42.10;29.80;;;;;;;-143.90;100.00;58478.06;5069078;28;20168;-76
2021/10/04 05:00:24;;;;;;;50.43;35.53;;;;;;;-143.90;100.00;58478.06;5076549;28;20437;-79
2021/10/04 05:02:49;;;;;;;35.30;25.80;;;;;;;-143.90;100.00;58478.06;5079835;28;20180;-74
2021/10/04 05:05:17;;;;;;;38.50;25.37;;;;;;;-143.90;100.00;58478.06;5069315;28;20730;-74
2021/10/04 05:07:43;;;;;;;36.37;23.50;;;;;;;-143.90;100.00;58478.06;5069174;28;20533;-74
2021/10/04 05:10:08;;;;;;;32.90;20.20;;;;;;;-143.90;100.00;58478.06;5058839;28;20416;-74
2021/10/04 05:12:35;;;;;;;28.00;15.80;;;;;;;-143.90;100.00;58478.06;5064870;28;20203;-75
2021/10/04 05:15:00;;;;;;;23.67;15.03;;;;;;;-143.90;100.00;58478.06;5069172;28;20157;-77
2021/10/04 05:17:26;;;;;;;19.33;12.20;;;;;;;-143.90;100.00;58478.06;5068709;28;20417;-75
2021/10/04 05:19:51;;;;;;;21.77;10.63;;;;;;;-143.90;100.00;58478.06;5069249;28;20285;-73
2021/10/04 05:22:17;;;;;;;17.07;10.17;;;;;;;-143.90;100.00;58478.06;5069742;28;20661;-74
2021/10/04 05:24:43;;;;;;;15.63;8.97;;;;;;;-143.90;100.00;58478.06;5069542;28;20184;-75
2021/10/04 05:27:09;;;;;;;14.43;8.13;;;;;;;-143.90;100.00;58478.06;5069482;28;20480;-72
2021/10/04 05:29:34;;;;;;;16.60;8.63;;;;;;;-143.90;100.00;58478.06;5069370;28;20168;-76
2021/10/04 05:32:00;;;;;;;10.90;7.40;;;;;;;-143.90;100.00;58478.06;5069631;28;20237;-77
2021/10/04 05:34:25;;;;;;;21.27;11.03;;;;;;;-143.90;100.00;58478.06;5073156;28;20523;-79
2021/10/04 05:36:51;;;;;;;18.77;9.30;;;;;;;-143.90;100.00;58478.06;5072794;28;20622;-75
2021/10/04 05:39:16;;;;;;;13.73;8.40;;;;;;;-143.90;100.00;58478.06;5073238;28;20217;-76
2021/10/04 05:41:42;;;;;;;14.93;9.23;;;;;;;-143.90;100.00;58478.06;5073814;28;20172;-73
2021/10/04 05:44:08;;;;;;;18.43;7.50;;;;;;;-143.90;100.00;58478.06;5073660;28;20294;-81
2021/10/04 05:46:36;;;;;;;19.13;9.70;;;;;;;-143.90;100.00;58478.06;5073286;28;20202;-78
2021/10/04 05:49:03;;;;;;;17.40;9.70;;;;;;;-143.90;100.00;58478.06;5073263;28;20179;-78
2021/10/04 05:51:28;;;;;;;15.43;8.87;;;;;;;-143.90;100.00;58478.06;5073835;28;20411;-81
2021/10/04 05:53:54;;;;;;;18.43;9.13;;;;;;;-143.90;100.00;58478.06;5073427;28;20472;-74
2021/10/04 05:56:19;;;;;;;13.50;9.27;;;;;;;-143.90;100.00;58478.06;5072428;28;20235;-75
2021/10/04 05:58:47;;;;;;;17.70;10.83;;;;;;;-143.90;100.00;58478.06;5072555;28;20268;-78
2021/10/04 06:01:13;;;;;;;16.93;9.70;;;;;;;-143.90;100.00;58478.06;5048708;28;20565;-75
2021/10/04 06:03:38;;;;;;;13.03;8.20;;;;;;;-143.90;100.00;58478.06;5064547;28;20421;-75
2021/10/04 06:06:04;;;;;;;14.17;7.80;;;;;;;-143.90;100.00;58478.06;5072535;28;20193;-76
2021/10/04 06:08:31;;;;;;;20.07;8.60;;;;;;;-143.90;100.00;58478.06;5075676;28;20168;-74
2021/10/04 06:10:56;;;;;;;16.73;9.07;;;;;;;-143.90;100.00;58478.06;5058240;28;20180;-75
2021/10/04 06:13:24;;;;;;;19.20;9.57;;;;;;;-143.90;100.00;58478.06;5076462;28;20824;-76
2021/10/04 06:15:49;;;;;;;15.87;8.10;;;;;;;-143.90;100.00;58478.06;5059226;28;20175;-81
2021/10/04 06:18:15;;;;;;;18.47;9.07;;;;;;;-143.90;100.00;58478.06;5074092;28;20403;-78
2021/10/04 06:20:42;;;;;;;12.87;7.90;;;;;;;-143.90;100.00;58478.06;5072358;28;20172;-80
2021/10/04 06:23:08;;;;;;;10.13;5.00;;;;;;;-143.90;100.00;58478.06;5072489;28;20578;-75
2021/10/04 06:25:34;;;;;;;16.80;8.60;;;;;;;-143.90;100.00;58478.06;5072302;28;20414;-80
2021/10/04 06:28:00;;;;;;;7.33;4.10;;;;;;;-143.90;100.00;58478.06;5072441;28;20491;-75
2021/10/04 06:30:26;;;;;;;7.10;3.20;;;;;;;-143.90;100.00;58478.06;5053500;28;20191;-72
2021/10/04 06:32:52;;;;;;;10.30;3.73;;;;;;;-143.90;100.00;58478.06;5072674;28;20191;-74
2021/10/04 06:35:18;;;;;;;8.30;3.97;;;;;;;-143.90;100.00;58478.06;5071832;28;20430;-74
2021/10/04 06:37:43;;;;;;;8.13;3.67;;;;;;;-143.90;100.00;58478.06;5071529;28;20223;-73
2021/10/04 06:40:09;;;;;;;16.17;10.90;;;;;;;-143.90;100.00;58478.06;5071856;28;20223;-77
2021/10/04 06:42:35;;;;;;;7.17;4.03;;;;;;;-143.90;100.00;58478.06;5071195;28;20214;-76
2021/10/04 06:45:01;;;;;;;7.00;3.60;;;;;;;-143.90;100.00;58478.06;5070891;28;20453;-72
2021/10/04 06:47:26;;;;;;;12.03;3.93;;;;;;;-143.90;100.00;58478.06;5071665;28;20407;-74
2021/10/04 06:49:52;;;;;;;7.30;3.97;;;;;;;-143.90;100.00;58478.06;5071136;28;20240;-69
2021/10/04 06:52:18;;;;;;;10.83;4.20;;;;;;;-143.90;100.00;58478.06;5071303;28;20196;-80
2021/10/04 06:54:44;;;;;;;12.00;5.90;;;;;;;-143.90;100.00;58478.06;5070668;28;20418;-73
2021/10/04 06:57:10;;;;;;;8.60;3.93;;;;;;;-143.90;100.00;58478.06;5071106;28;20568;-75
2021/10/04 06:59:35;;;;;;;9.13;4.23;;;;;;;-143.90;100.00;58478.06;5071251;28;20188;-77
2021/10/04 07:02:02;;;;;;;9.30;3.80;;;;;;;-143.90;100.00;58478.06;5071229;28;20639;-78
2021/10/04 07:04:28;;;;;;;8.50;3.20;;;;;;;-143.90;100.00;58478.06;5070096;28;20164;-76
2021/10/04 07:06:53;;;;;;;6.60;2.80;;;;;;;-143.90;100.00;58478.06;5062373;28;20433;-78
2021/10/04 07:09:19;;;;;;;8.03;3.80;;;;;;;-143.90;100.00;58478.06;5071072;28;20168;-75
2021/10/04 07:11:44;;;;;;;9.30;3.07;;;;;;;-143.90;100.00;58478.06;5070578;28;20645;-79
2021/10/04 07:14:10;;;;;;;12.10;5.63;;;;;;;-143.90;100.00;58478.06;5070927;28;20199;-78
2021/10/04 07:16:35;;;;;;;11.00;5.33;;;;;;;-143.90;100.00;58478.06;5070908;28;20230;-76
2021/10/04 07:19:03;;;;;;;11.80;4.33;;;;;;;-143.90;100.00;58478.06;5070911;28;20172;-75
2021/10/04 07:21:29;;;;;;;6.50;3.10;;;;;;;-143.90;100.00;58478.06;5070876;28;20165;-74
2021/10/04 07:23:54;;;;;;;6.00;2.83;;;;;;;-143.90;100.00;58478.06;5070581;28;20852;-75
2021/10/04 07:26:20;;;;;;;12.87;3.07;;;;;;;-143.90;100.00;58478.06;5070848;28;20177;-73
2021/10/04 07:28:45;;;;;;;6.10;2.80;;;;;;;-143.90;100.00;58478.06;5071013;28;20173;-77
2021/10/04 07:31:11;;;;;;;6.50;3.20;;;;;;;-143.90;100.00;58478.06;5070981;28;20184;-74
2021/10/04 07:33:37;;;;;;;7.77;2.70;;;;;;;-143.90;100.00;58478.06;5070886;28;20283;-75
2021/10/04 07:36:06;;;;;;;6.70;2.90;;;;;;;-143.90;100.00;58478.06;5070565;28;20231;-77
2021/10/04 07:38:33;;;;;;;8.50;3.30;;;;;;;-143.90;100.00;58478.06;5070209;28;20255;-77
2021/10/04 07:40:58;;;;;;;5.17;2.70;;;;;;;-143.90;100.00;58478.06;5070751;28;20908;-70
2021/10/04 07:43:24;;;;;;;10.03;2.73;;;;;;;-143.90;100.00;58478.06;5070633;28;20448;-73
2021/10/04 07:45:50;;;;;;;6.53;3.10;;;;;;;-143.90;100.00;58478.06;5071085;28;20164;-75
2021/10/04 07:48:15;;;;;;;10.97;3.50;;;;;;;-143.90;100.00;58478.06;5070572;28;20295;-70
2021/10/04 07:50:44;;;;;;;6.67;2.70;;;;;;;-143.90;100.00;58478.06;5070293;28;20199;-75
2021/10/04 07:53:11;;;;;;;14.97;3.17;;;;;;;-143.90;100.00;58478.06;5069878;28;20279;-75
2021/10/04 07:55:38;;;;;;;5.30;2.90;;;;;;;-143.90;100.00;58478.06;5069089;28;20406;-76
2021/10/04 07:58:04;;;;;;;8.33;3.27;;;;;;;-143.90;100.00;58478.06;5070216;28;20511;-76
2021/10/04 08:00:29;;;;;;;5.37;2.50;;;;;;;-143.90;100.00;58478.06;5070404;28;20995;-76
2021/10/04 08:02:54;;;;;;;11.43;3.40;;;;;;;-143.90;100.00;58478.06;5070196;28;20176;-75
2021/10/04 08:05:20;;;;;;;10.20;3.87;;;;;;;-143.90;100.00;58478.06;5070028;28;20176;-75
2021/10/04 08:07:46;;;;;;;6.97;2.80;;;;;;;-143.90;100.00;58478.06;5069801;28;20160;-72
2021/10/04 08:10:11;;;;;;;5.23;2.80;;;;;;;-143.90;100.00;58478.06;5069605;28;20199;-76
2021/10/04 08:12:37;;;;;;;7.53;3.27;;;;;;;-143.90;100.00;58478.06;5069874;28;20218;-75
2021/10/04 08:15:04;;;;;;;8.20;2.93;;;;;;;-143.90;100.00;58478.06;5069730;28;20251;-74
2021/10/04 08:17:30;;;;;;;8.50;3.10;;;;;;;-143.90;100.00;58478.06;5069620;28;20414;-75
2021/10/04 08:19:56;;;;;;;6.07;3.30;;;;;;;-143.90;100.00;58478.06;5068858;28;20418;-72
2021/10/04 08:22:21;;;;;;;8.90;3.00;;;;;;;-143.90;100.00;58478.06;5069558;28;20676;-74
2021/10/04 08:24:47;;;;;;;7.53;2.80;;;;;;;-143.90;100.00;58478.06;5069646;28;20173;-76
2021/10/04 08:27:12;;;;;;;7.57;2.80;;;;;;;-143.90;100.00;58478.06;5069860;28;20638;-75
2021/10/04 08:29:38;;;;;;;9.80;3.17;;;;;;;-143.90;100.00;58478.06;5085006;28;20184;-74
2021/10/04 08:32:04;;;;;;;6.77;2.40;;;;;;;-143.90;100.00;58478.06;5069496;28;20172;-72
2021/10/04 08:34:30;;;;;;;6.90;3.10;;;;;;;-143.90;100.00;58478.06;5069489;28;20259;-75
2021/10/04 08:36:55;;;;;;;13.83;2.93;;;;;;;-143.90;100.00;58478.06;5068951;28;20564;-78
2021/10/04 08:39:21;;;;;;;9.20;2.67;;;;;;;-143.90;100.00;58478.06;5069269;28;20303;-79
2021/10/04 08:41:48;;;;;;;5.30;2.63;;;;;;;-143.90;100.00;58478.06;5051631;28;20630;-75
2021/10/04 08:44:14;;;;;;;8.10;3.00;;;;;;;-143.90;100.00;58478.06;5069268;28;20267;-77
2021/10/04 08:46:45;;;;;;;61.83;45.60;;;;;;;-143.90;100.00;58478.06;5069470;28;20892;-72
2021/10/04 08:49:16;;;;;;;8.63;2.90;;;;;;;-143.90;100.00;58478.06;5069777;28;20422;-77
2021/10/04 08:51:43;;;;;;;8.03;3.50;;;;;;;-143.90;100.00;58478.06;5069759;28;20504;-74
2021/10/04 08:54:08;;;;;;;7.47;3.50;;;;;;;-143.90;100.00;58478.06;5069550;28;21044;-78
2021/10/04 08:56:35;;;;;;;5.63;2.47;;;;;;;-143.90;100.00;58478.06;5069796;28;20407;-73
2021/10/04 08:59:01;;;;;;;5.23;2.27;;;;;;;-143.90;100.00;58478.06;5069298;28;20176;-80
2021/10/04 09:01:27;;;;;;;4.93;2.37;;;;;;;-143.90;100.00;58478.06;5070113;28;20402;-79
2021/10/04 09:04:01;;;;;;;6.57;2.17;;;;;;;-143.90;100.00;58478.06;5069040;28;20535;-72
2021/10/04 09:06:34;;;;;;;5.50;2.63;;;;;;;-143.90;100.00;58478.06;5069533;28;20399;-79
2021/10/04 09:09:03;;;;;;;5.70;2.73;;;;;;;-143.90;100.00;58478.06;5072569;28;20434;-73
2021/10/04 09:11:38;;;;;;;6.40;2.73;;;;;;;-143.90;100.00;58478.06;5072160;28;20422;-76
2021/10/04 09:14:19;;;;;;;6.83;2.50;;;;;;;-143.90;100.00;58478.06;5073302;28;20453;-74
2021/10/04 09:17:08;;;;;;;5.47;2.60;;;;;;;-143.90;100.00;58478.06;5073044;28;20398;-78
2021/10/04 09:19:36;;;;;;;7.47;3.00;;;;;;;-143.90;100.00;58478.06;5072901;28;20407;-75
2021/10/04 09:22:02;;;;;;;6.00;2.97;;;;;;;-143.90;100.00;58478.06;5073094;28;20517;-72
2021/10/04 09:24:27;;;;;;;6.30;2.87;;;;;;;-143.90;100.00;58478.06;5072554;28;20494;-75
2021/10/04 09:26:53;;;;;;;7.37;3.30;;;;;;;-143.90;100.00;58478.06;5072271;28;20175;-73
2021/10/04 09:29:20;;;;;;;5.10;2.07;;;;;;;-143.90;100.00;58478.06;5072023;28;20619;-75
2021/10/04 09:31:47;;;;;;;5.97;2.37;;;;;;;-143.90;100.00;58478.06;5072454;28;20809;-73
2021/10/04 09:34:13;;;;;;;7.20;2.50;;;;;;;-143.90;100.00;58478.06;5071633;28;20571;-76
2021/10/04 09:36:49;;;;;;;8.43;2.20;;;;;;;-143.90;100.00;58478.06;5071345;28;20423;-74
2021/10/04 09:39:21;;;;;;;6.47;2.60;;;;;;;-143.90;100.00;58478.06;5063443;28;20453;-71
2021/10/04 09:42:06;;;;;;;8.37;2.60;;;;;;;-143.90;100.00;58478.06;5073921;28;20445;-77
2021/10/04 09:44:54;;;;;;;8.37;2.73;;;;;;;-143.90;100.00;58478.06;5071818;28;20414;-73
2021/10/04 09:47:36;;;;;;;10.23;5.30;;;;;;;-143.90;100.00;58478.06;5069539;28;21024;-75
2021/10/04 09:50:16;;;;;;;6.73;2.87;;;;;;;-143.90;100.00;58478.06;5072817;28;20432;-71
2021/10/04 09:52:45;;;;;;;11.70;2.90;;;;;;;-143.90;100.00;58478.06;5072090;28;20539;-75
2021/10/04 09:55:36;;;;;;;6.60;2.93;;;;;;;-143.90;100.00;58478.06;5072640;28;20422;-69
2021/10/04 09:58:16;;;;;;;10.50;3.10;;;;;;;-143.90;100.00;58478.06;5072057;28;20427;-70
2021/10/04 10:00:46;;;;;;;6.40;2.73;;;;;;;-143.90;100.00;58478.06;5071999;28;20450;-75
2021/10/04 10:03:14;;;;;;;6.83;2.73;;;;;;;-143.90;100.00;58478.06;5086980;28;20433;-74
2021/10/04 10:05:43;;;;;;;9.50;3.03;;;;;;;-143.90;100.00;58478.06;5075744;28;20427;-77
2021/10/04 10:08:10;;;;;;;7.00;2.90;;;;;;;-143.90;100.00;58478.06;5070780;28;20414;-75
2021/10/04 10:10:38;;;;;;;6.13;3.50;;;;;;;-143.90;100.00;58478.06;5071422;28;20503;-74
2021/10/04 10:13:06;;;;;;;7.17;3.00;;;;;;;-143.90;100.00;58478.06;5062472;28;21048;-77
2021/10/04 10:15:32;;;;;;;7.83;3.30;;;;;;;-143.90;100.00;58478.06;5071102;28;20472;-80
2021/10/04 10:18:09;;;;;;;6.60;2.90;;;;;;;-143.90;100.00;58478.06;5070448;28;20450;-73
2021/10/04 10:20:36;;;;;;;8.73;2.63;;;;;;;-143.90;100.00;58478.06;5071051;28;20426;-74
2021/10/04 10:23:02;;;;;;;9.03;2.93;;;;;;;-143.90;100.00;58478.06;5071169;28;20755;-77
2021/10/04 10:25:34;;;;;;;12.57;2.70;;;;;;;-143.90;100.00;58478.06;5071485;28;20429;-77
2021/10/04 10:28:02;;;;;;;12.10;4.20;;;;;;;-143.90;100.00;58478.06;5069995;28;20502;-73
2021/10/04 10:30:28;;;;;;;10.50;4.73;;;;;;;-143.90;100.00;58478.06;5053267;28;20403;-74
2021/10/04 10:32:55;;;;;;;7.33;2.53;;;;;;;-143.90;100.00;58478.06;5071518;28;20537;-73
2021/10/04 10:35:49;;;;;;;7.30;2.50;;;;;;;-143.90;100.00;58478.06;5071323;28;20403;-76
2021/10/04 10:38:16;;;;;;;5.97;2.77;;;;;;;-143.90;100.00;58478.06;5070991;28;20462;-74
2021/10/04 10:40:42;;;;;;;7.47;2.90;;;;;;;-143.90;100.00;58478.06;5071596;28;20454;-74
2021/10/04 10:43:09;;;;;;;4.80;2.37;;;;;;;-143.90;100.00;58478.06;5070973;28;20438;-76
2021/10/04 10:45:44;;;;;;;6.77;2.70;;;;;;;-143.90;100.00;58478.06;5071336;28;20208;-77
2021/10/04 10:48:11;;;;;;;5.33;2.70;;;;;;;-143.90;100.00;58478.06;5070897;28;20425;-76
2021/10/04 10:50:38;;;;;;;7.97;3.77;;;;;;;-143.90;100.00;58478.06;5070655;28;20944;-73
2021/10/04 10:53:16;;;;;;;7.03;2.60;;;;;;;-143.90;100.00;58478.06;5070258;28;20553;-76
2021/10/04 10:55:52;;;;;;;6.70;2.97;;;;;;;-143.90;100.00;58478.06;5071337;28;20445;-74
2021/10/04 10:58:23;;;;;;;7.63;3.23;;;;;;;-143.90;100.00;58478.06;5071434;28;20411;-76
2021/10/04 11:00:48;;;;;;;9.90;2.93;;;;;;;-143.90;100.00;58478.06;5070830;28;20496;-75
2021/10/04 11:03:21;;;;;;;7.60;3.60;;;;;;;-143.90;100.00;58478.06;5070660;28;20495;-75